Mc Comb/Pike County/John E Lewis Field
KMCB : now visible

Airfield :











YOU CAN JOIN US ON...

 
LOGIN :

Register | Disclaimer

   EN    FR    IT 

 









Legend :    VFR   Marginal VFR   IFR   Intensive IFR   Very Intensive IFR
Visi :
Ceiling :
>= 8 km
>= 3000ft
5 to 8 km
1000 to 3000 ft
1500m to 5 km
500 to 1000 ft
800 to 1500m
200 to 500 ft
< 800m
< 200 ft
Symbols :   Thunderstorms  Fog  Heavy snow  Heavy precipitations  Wind > 20 kt






- Airport Elevation : 413 ft


KMCB - Mc Comb/Pike County/John E Lewis Field

CURRENT METAR :
  • 281153Z AUTO 18006KT 8SM FEW013 SCT028 OVC036 23/21 A2992 RMK AO2 SLP124 T02280206 10228 20211 51012

EXPIRED METARs :
  • 281115Z AUTO 18007KT 9SM BKN012 BKN021 OVC030 23/21 A2991 RMK AO2 T02280206
  • 281111Z AUTO 19006KT 9SM SCT012 SCT021 OVC030 23/21 A2990 RMK AO2 T02280206
  • 281053Z AUTO 19006KT 9SM SCT014 BKN022 OVC030 23/21 A2990 RMK AO2 SLP117 T02280206
  • 281046Z AUTO 19008KT 9SM SCT016 SCT022 OVC031 23/21 A2989 RMK AO2 T02280206
  • 281007Z AUTO 18008KT 9SM FEW010 BKN015 OVC023 23/21 A2988 RMK AO2 T02280206
  • 280953Z AUTO 18009KT 9SM BKN013 OVC020 23/21 A2988 RMK AO2 SLP112 T02280206

TAF KMCB
Valid from the 28 at 12:00 until the 29 at 12:00 UTC


281127Z 2812/2912 20010KT P6SM BKN012 OVC025
FM281500 19009KT P6SM BKN030
FM281700 19010KT P6SM SCT030
FM290400 20006KT P6SM BKN025
FM290600 21005KT P6SM OVC010



MET'MAP, your aeronautical weather chart ! - Copyright ORBIFLY December 2007 - Disclaimer

ORBIFLY MET'MAP TEAM :

Programming & Development : Alexandra Zaïnal
Concept & original design : Baudouin d'Aumeries
Assistance for programming : Marc-Olivier Méhu
Technical & hardware support : Manuel Goepfert

Contact : metmap@orbifly.com




SOURCES & CREDITS :

   NOAA       Earth
Advisory